sensor_id;sensor_type;location;lat;lon;timestamp;pressure;altitude;pressure_sealevel;temperature;humidity
3178;BME280;38141;42.666;23.344;2023-03-22T00:00:23;94328.63;;;11.03;100.00
3178;BME280;38141;42.666;23.344;2023-03-22T00:02:54;94317.03;;;10.99;100.00
3178;BME280;38141;42.666;23.344;2023-03-22T00:05:21;94321.56;;;11.20;100.00
3178;BME280;38141;42.666;23.344;2023-03-22T00:07:48;94326.19;;;11.23;100.00
3178;BME280;38141;42.666;23.344;2023-03-22T00:10:19;94321.09;;;11.32;100.00
3178;BME280;38141;42.666;23.344;2023-03-22T00:12:45;94299.69;;;10.89;100.00
3178;BME280;38141;42.666;23.344;2023-03-22T00:15:12;94327.09;;;10.98;100.00
3178;BME280;38141;42.666;23.344;2023-03-22T00:17:39;94322.06;;;10.97;100.00
3178;BME280;38141;42.666;23.344;2023-03-22T00:20:09;94325.56;;;10.90;100.00
3178;BME280;38141;42.666;23.344;2023-03-22T00:22:36;94277.78;;;10.52;100.00
3178;BME280;38141;42.666;23.344;2023-03-22T00:25:04;94292.84;;;10.49;100.00
3178;BME280;38141;42.666;23.344;2023-03-22T00:27:31;94306.69;;;10.69;100.00
3178;BME280;38141;42.666;23.344;2023-03-22T00:29:58;94316.38;;;10.66;100.00
3178;BME280;38141;42.666;23.344;2023-03-22T00:32:25;94308.66;;;10.61;100.00
3178;BME280;38141;42.666;23.344;2023-03-22T00:34:52;94314.06;;;10.61;100.00
3178;BME280;38141;42.666;23.344;2023-03-22T00:37:20;94307.09;;;10.64;100.00
3178;BME280;38141;42.666;23.344;2023-03-22T00:39:47;94284.28;;;10.72;100.00
3178;BME280;38141;42.666;23.344;2023-03-22T00:42:13;94308.28;;;10.66;100.00
3178;BME280;38141;42.666;23.344;2023-03-22T00:44:40;94308.66;;;10.65;100.00
3178;BME280;38141;42.666;23.344;2023-03-22T00:47:07;94307.91;;;10.61;100.00
3178;BME280;38141;42.666;23.344;2023-03-22T00:49:34;94314.84;;;10.58;100.00
3178;BME280;38141;42.666;23.344;2023-03-22T00:52:01;94305.59;;;10.56;100.00
3178;BME280;38141;42.666;23.344;2023-03-22T00:54:29;94287.41;;;10.63;100.00
3178;BME280;38141;42.666;23.344;2023-03-22T00:56:56;94304.41;;;10.60;100.00
3178;BME280;38141;42.666;23.344;2023-03-22T00:59:23;94308.63;;;10.72;100.00
3178;BME280;38141;42.666;23.344;2023-03-22T01:01:50;94313.25;;;10.75;100.00
3178;BME280;38141;42.666;23.344;2023-03-22T01:04:17;94300.50;;;10.72;100.00
3178;BME280;38141;42.666;23.344;2023-03-22T01:06:50;94295.50;;;10.70;100.00
3178;BME280;38141;42.666;23.344;2023-03-22T01:09:24;94301.34;;;10.55;100.00
3178;BME280;38141;42.666;23.344;2023-03-22T01:11:54;94299.44;;;10.48;100.00
3178;BME280;38141;42.666;23.344;2023-03-22T01:14:21;94295.94;;;10.55;100.00
3178;BME280;38141;42.666;23.344;2023-03-22T01:16:48;94282.84;;;10.43;100.00
3178;BME280;38141;42.666;23.344;2023-03-22T01:19:15;94287.91;;;10.27;100.00
3178;BME280;38141;42.666;23.344;2023-03-22T01:21:42;94284.84;;;10.17;100.00
3178;BME280;38141;42.666;23.344;2023-03-22T01:24:08;94287.91;;;10.19;100.00
3178;BME280;38141;42.666;23.344;2023-03-22T01:26:35;94266.69;;;10.04;100.00
3178;BME280;38141;42.666;23.344;2023-03-22T01:29:04;94279.81;;;10.12;100.00
3178;BME280;38141;42.666;23.344;2023-03-22T01:31:31;94252.06;;;9.80;100.00
3178;BME280;38141;42.666;23.344;2023-03-22T01:33:58;94289.06;;;10.04;100.00
3178;BME280;38141;42.666;23.344;2023-03-22T01:36:24;94275.16;;;10.13;100.00
3178;BME280;38141;42.666;23.344;2023-03-22T01:38:51;94280.56;;;10.31;100.00
3178;BME280;38141;42.666;23.344;2023-03-22T01:41:18;94277.06;;;10.34;100.00
3178;BME280;38141;42.666;23.344;2023-03-22T01:44:07;94235.81;;;10.01;100.00
3178;BME280;38141;42.666;23.344;2023-03-22T01:46:34;94270.91;;;10.05;100.00
3178;BME280;38141;42.666;23.344;2023-03-22T01:49:02;94277.09;;;10.19;100.00
3178;BME280;38141;42.666;23.344;2023-03-22T01:51:30;94267.09;;;9.99;100.00
3178;BME280;38141;42.666;23.344;2023-03-22T01:53:59;94267.03;;;10.09;100.00
3178;BME280;38141;42.666;23.344;2023-03-22T01:56:31;94279.41;;;10.10;100.00
3178;BME280;38141;42.666;23.344;2023-03-22T01:59:00;94246.28;;;9.71;100.00
3178;BME280;38141;42.666;23.344;2023-03-22T02:01:29;94272.88;;;9.94;100.00
3178;BME280;38141;42.666;23.344;2023-03-22T02:03:58;94272.09;;;9.82;100.00
3178;BME280;38141;42.666;23.344;2023-03-22T02:06:28;94272.50;;;9.85;100.00
3178;BME280;38141;42.666;23.344;2023-03-22T02:08:57;94274.41;;;9.91;100.00
3178;BME280;38141;42.666;23.344;2023-03-22T02:11:28;94255.13;;;9.68;100.00
3178;BME280;38141;42.666;23.344;2023-03-22T02:14:17;94254.78;;;9.62;100.00
3178;BME280;38141;42.666;23.344;2023-03-22T02:16:59;94266.31;;;9.59;100.00
3178;BME280;38141;42.666;23.344;2023-03-22T02:25:44;94263.63;;;9.88;100.00
3178;BME280;38141;42.666;23.344;2023-03-22T02:28:23;94212.72;;;9.58;100.00
3178;BME280;38141;42.666;23.344;2023-03-22T02:31:20;94264.38;;;9.95;100.00
3178;BME280;38141;42.666;23.344;2023-03-22T02:34:16;94281.34;;;10.03;100.00
3178;BME280;38141;42.666;23.344;2023-03-22T02:39:54;94288.69;;;10.06;100.00
3178;BME280;38141;42.666;23.344;2023-03-22T02:42:34;94291.78;;;10.25;100.00
3178;BME280;38141;42.666;23.344;2023-03-22T02:45:10;94292.16;;;10.06;100.00
3178;BME280;38141;42.666;23.344;2023-03-22T02:47:41;94298.72;;;10.12;100.00
3178;BME280;38141;42.666;23.344;2023-03-22T02:50:14;94267.88;;;9.85;100.00
3178;BME280;38141;42.666;23.344;2023-03-22T02:52:48;94302.22;;;10.16;100.00
3178;BME280;38141;42.666;23.344;2023-03-22T02:55:22;94213.88;;;9.57;100.00
3178;BME280;38141;42.666;23.344;2023-03-22T02:57:54;94276.31;;;10.05;100.00
3178;BME280;38141;42.666;23.344;2023-03-22T03:00:24;94279.41;;;10.00;100.00
3178;BME280;38141;42.666;23.344;2023-03-22T03:02:55;94169.94;;;9.07;100.00
3178;BME280;38141;42.666;23.344;2023-03-22T03:05:25;94297.94;;;10.01;100.00
3178;BME280;38141;42.666;23.344;2023-03-22T03:07:58;94281.38;;;9.89;100.00
3178;BME280;38141;42.666;23.344;2023-03-22T03:10:28;94271.34;;;9.86;100.00
3178;BME280;38141;42.666;23.344;2023-03-22T03:12:56;94265.94;;;9.71;100.00
3178;BME280;38141;42.666;23.344;2023-03-22T03:15:23;94291.75;;;10.11;100.00
3178;BME280;38141;42.666;23.344;2023-03-22T03:18:02;94220.44;;;9.56;100.00
3178;BME280;38141;42.666;23.344;2023-03-22T03:20:41;94226.56;;;9.85;100.00
3178;BME280;38141;42.666;23.344;2023-03-22T03:23:16;94188.81;;;9.49;100.00
3178;BME280;38141;42.666;23.344;2023-03-22T03:25:57;94302.53;;;10.36;100.00
3178;BME280;38141;42.666;23.344;2023-03-22T03:28:30;94311.81;;;10.42;100.00
3178;BME280;38141;42.666;23.344;2023-03-22T03:31:09;94303.75;;;10.24;100.00
3178;BME280;38141;42.666;23.344;2023-03-22T03:33:44;94309.09;;;10.46;100.00
3178;BME280;38141;42.666;23.344;2023-03-22T03:36:14;94297.91;;;10.37;100.00
3178;BME280;38141;42.666;23.344;2023-03-22T03:38:45;94313.00;;;10.27;100.00
3178;BME280;38141;42.666;23.344;2023-03-22T03:41:17;94306.06;;;10.26;100.00
3178;BME280;38141;42.666;23.344;2023-03-22T03:43:46;94297.59;;;9.99;100.00
3178;BME280;38141;42.666;23.344;2023-03-22T03:46:14;94302.59;;;9.94;100.00
3178;BME280;38141;42.666;23.344;2023-03-22T03:48:44;94300.28;;;9.99;100.00
3178;BME280;38141;42.666;23.344;2023-03-22T03:51:12;94310.69;;;10.18;100.00
3178;BME280;38141;42.666;23.344;2023-03-22T03:53:39;94274.06;;;9.71;100.00
3178;BME280;38141;42.666;23.344;2023-03-22T03:56:07;94304.91;;;9.99;100.00
3178;BME280;38141;42.666;23.344;2023-03-22T03:58:35;94312.22;;;10.12;100.00
3178;BME280;38141;42.666;23.344;2023-03-22T04:01:02;94320.34;;;10.19;100.00
3178;BME280;38141;42.666;23.344;2023-03-22T04:03:29;94321.13;;;10.20;100.00
3178;BME280;38141;42.666;23.344;2023-03-22T04:05:57;94280.19;;;10.07;100.00
3178;BME280;38141;42.666;23.344;2023-03-22T04:08:24;94307.63;;;9.99;100.00
3178;BME280;38141;42.666;23.344;2023-03-22T04:10:51;94292.53;;;10.05;100.00
3178;BME280;38141;42.666;23.344;2023-03-22T04:13:18;94321.13;;;9.99;100.00
3178;BME280;38141;42.666;23.344;2023-03-22T04:15:51;94307.59;;;9.77;100.00
3178;BME280;38141;42.666;23.344;2023-03-22T04:18:18;94322.66;;;9.68;100.00
3178;BME280;38141;42.666;23.344;2023-03-22T04:20:45;94323.44;;;9.79;100.00
3178;BME280;38141;42.666;23.344;2023-03-22T04:23:14;94253.59;;;9.28;100.00
3178;BME280;38141;42.666;23.344;2023-03-22T04:25:41;94246.25;;;9.18;100.00
3178;BME280;38141;42.666;23.344;2023-03-22T04:28:07;94334.63;;;9.74;100.00
3178;BME280;38141;42.666;23.344;2023-03-22T04:30:35;94314.91;;;9.45;100.00
3178;BME280;38141;42.666;23.344;2023-03-22T04:33:04;94353.91;;;9.65;100.00
3178;BME280;38141;42.666;23.344;2023-03-22T04:35:32;94258.97;;;9.14;100.00
3178;BME280;38141;42.666;23.344;2023-03-22T04:38:00;94321.88;;;9.46;100.00
3178;BME280;38141;42.666;23.344;2023-03-22T04:40:27;94336.94;;;10.00;100.00
3178;BME280;38141;42.666;23.344;2023-03-22T04:42:56;94318.78;;;10.04;100.00
3178;BME280;38141;42.666;23.344;2023-03-22T04:45:23;94341.56;;;10.07;100.00
3178;BME280;38141;42.666;23.344;2023-03-22T04:47:54;94342.34;;;10.36;100.00
3178;BME280;38141;42.666;23.344;2023-03-22T04:50:23;94272.09;;;10.00;100.00
3178;BME280;38141;42.666;23.344;2023-03-22T04:52:52;94313.78;;;9.89;100.00
3178;BME280;38141;42.666;23.344;2023-03-22T04:55:19;94262.84;;;9.41;100.00
3178;BME280;38141;42.666;23.344;2023-03-22T04:57:46;94342.72;;;10.09;100.00
3178;BME280;38141;42.666;23.344;2023-03-22T05:00:14;94284.44;;;9.34;100.00
3178;BME280;38141;42.666;23.344;2023-03-22T05:02:41;94331.13;;;9.77;100.00
3178;BME280;38141;42.666;23.344;2023-03-22T05:05:08;94354.31;;;9.99;100.00
3178;BME280;38141;42.666;23.344;2023-03-22T05:07:36;94358.19;;;10.02;100.00
3178;BME280;38141;42.666;23.344;2023-03-22T05:10:04;94342.34;;;9.79;100.00
3178;BME280;38141;42.666;23.344;2023-03-22T05:12:31;94338.09;;;9.53;100.00
3178;BME280;38141;42.666;23.344;2023-03-22T05:14:58;94364.34;;;9.95;100.00
3178;BME280;38141;42.666;23.344;2023-03-22T05:17:25;94365.50;;;10.12;100.00
3178;BME280;38141;42.666;23.344;2023-03-22T05:19:52;94317.66;;;9.80;100.00
3178;BME280;38141;42.666;23.344;2023-03-22T05:22:19;94367.47;;;10.29;100.00
3178;BME280;38141;42.666;23.344;2023-03-22T05:24:48;94359.72;;;9.99;100.00
3178;BME280;38141;42.666;23.344;2023-03-22T05:27:15;94374.78;;;10.32;100.00
3178;BME280;38141;42.666;23.344;2023-03-22T05:29:41;94353.94;;;10.08;100.00
3178;BME280;38141;42.666;23.344;2023-03-22T05:32:09;94355.47;;;9.98;100.00
3178;BME280;38141;42.666;23.344;2023-03-22T05:34:36;94318.44;;;9.85;100.00
3178;BME280;38141;42.666;23.344;2023-03-22T05:37:06;94380.94;;;10.15;100.00
3178;BME280;38141;42.666;23.344;2023-03-22T05:39:32;94382.16;;;10.21;100.00
3178;BME280;38141;42.666;23.344;2023-03-22T05:42:01;94363.97;;;10.07;100.00
3178;BME280;38141;42.666;23.344;2023-03-22T05:44:28;94362.03;;;10.04;100.00
3178;BME280;38141;42.666;23.344;2023-03-22T05:46:54;94304.13;;;9.77;100.00
3178;BME280;38141;42.666;23.344;2023-03-22T05:49:21;94304.53;;;9.68;100.00
3178;BME280;38141;42.666;23.344;2023-03-22T05:51:49;94352.41;;;10.03;100.00
3178;BME280;38141;42.666;23.344;2023-03-22T05:54:16;94273.66;;;9.66;100.00
3178;BME280;38141;42.666;23.344;2023-03-22T05:56:42;94303.75;;;9.57;100.00
3178;BME280;38141;42.666;23.344;2023-03-22T05:59:11;94274.44;;;9.49;100.00
3178;BME280;38141;42.666;23.344;2023-03-22T06:01:38;94335.41;;;9.74;100.00
3178;BME280;38141;42.666;23.344;2023-03-22T06:04:05;94403.72;;;10.14;100.00
3178;BME280;38141;42.666;23.344;2023-03-22T06:06:32;94367.44;;;10.11;100.00
3178;BME280;38141;42.666;23.344;2023-03-22T06:09:00;94404.16;;;10.34;100.00
3178;BME280;38141;42.666;23.344;2023-03-22T06:11:27;94408.41;;;10.35;100.00
3178;BME280;38141;42.666;23.344;2023-03-22T06:13:54;94405.28;;;10.43;100.00
3178;BME280;38141;42.666;23.344;2023-03-22T06:16:23;94404.16;;;10.30;100.00
3178;BME280;38141;42.666;23.344;2023-03-22T06:18:49;94394.84;;;10.13;100.00
3178;BME280;38141;42.666;23.344;2023-03-22T06:21:16;94392.94;;;10.35;100.00
3178;BME280;38141;42.666;23.344;2023-03-22T06:23:43;94326.16;;;9.72;100.00
3178;BME280;38141;42.666;23.344;2023-03-22T06:26:11;94341.97;;;9.98;100.00
3178;BME280;38141;42.666;23.344;2023-03-22T06:28:37;94367.44;;;10.11;100.00
3178;BME280;38141;42.666;23.344;2023-03-22T06:31:05;94412.19;;;10.73;100.00
3178;BME280;38141;42.666;23.344;2023-03-22T06:33:36;94397.13;;;10.75;100.00
3178;BME280;38141;42.666;23.344;2023-03-22T06:36:03;94372.03;;;10.64;100.00
3178;BME280;38141;42.666;23.344;2023-03-22T06:38:30;94426.78;;;11.21;100.00
3178;BME280;38141;42.666;23.344;2023-03-22T06:40:56;94420.59;;;11.10;100.00
3178;BME280;38141;42.666;23.344;2023-03-22T06:43:23;94366.63;;;10.57;100.00
3178;BME280;38141;42.666;23.344;2023-03-22T06:45:50;94424.94;;;10.90;100.00
3178;BME280;38141;42.666;23.344;2023-03-22T06:48:17;94426.09;;;10.89;100.00
3178;BME280;38141;42.666;23.344;2023-03-22T06:50:45;94437.25;;;11.05;100.00
3178;BME280;38141;42.666;23.344;2023-03-22T06:53:12;94432.97;;;11.22;100.00
3178;BME280;38141;42.666;23.344;2023-03-22T06:55:39;94434.03;;;11.42;100.00
3178;BME280;38141;42.666;23.344;2023-03-22T06:58:06;94392.06;;;10.91;100.00
3178;BME280;38141;42.666;23.344;2023-03-22T07:00:34;94439.53;;;11.13;100.00
3178;BME280;38141;42.666;23.344;2023-03-22T07:03:01;94439.59;;;11.03;100.00
3178;BME280;38141;42.666;23.344;2023-03-22T07:08:52;94450.06;;;10.94;100.00
3178;BME280;38141;42.666;23.344;2023-03-22T07:11:18;94428.03;;;10.78;100.00
3178;BME280;38141;42.666;23.344;2023-03-22T07:13:46;94341.19;;;10.19;100.00
3178;BME280;38141;42.666;23.344;2023-03-22T07:16:13;94321.13;;;10.16;100.00
3178;BME280;38141;42.666;23.344;2023-03-22T07:18:41;94401.00;;;10.63;100.00
3178;BME280;38141;42.666;23.344;2023-03-22T07:21:12;94407.56;;;10.69;100.00
3178;BME280;38141;42.666;23.344;2023-03-22T07:23:39;94415.31;;;10.71;100.00
3178;BME280;38141;42.666;23.344;2023-03-22T07:26:09;94354.31;;;10.42;100.00
3178;BME280;38141;42.666;23.344;2023-03-22T07:28:37;94351.59;;;10.45;100.00
3178;BME280;38141;42.666;23.344;2023-03-22T07:31:07;94400.88;;;11.17;100.00
3178;BME280;38141;42.666;23.344;2023-03-22T07:33:36;94295.56;;;10.46;100.00
3178;BME280;38141;42.666;23.344;2023-03-22T07:36:03;94469.50;;;11.69;100.00
3178;BME280;38141;42.666;23.344;2023-03-22T07:38:31;94368.03;;;11.07;100.00
3178;BME280;38141;42.666;23.344;2023-03-22T07:41:03;94360.31;;;11.06;100.00
3178;BME280;38141;42.666;23.344;2023-03-22T07:43:36;94421.63;;;11.48;100.00
3178;BME280;38141;42.666;23.344;2023-03-22T07:46:04;94461.00;;;11.63;100.00
3178;BME280;38141;42.666;23.344;2023-03-22T07:48:45;94424.34;;;11.41;100.00
3178;BME280;38141;42.666;23.344;2023-03-22T07:51:13;94424.81;;;11.25;100.00
3178;BME280;38141;42.666;23.344;2023-03-22T07:53:41;94366.59;;;10.75;100.00
3178;BME280;38141;42.666;23.344;2023-03-22T07:56:09;94343.06;;;10.61;100.00
3178;BME280;38141;42.666;23.344;2023-03-22T07:58:38;94456.47;;;11.42;100.00
3178;BME280;38141;42.666;23.344;2023-03-22T08:01:06;94486.53;;;11.69;100.00
3178;BME280;38141;42.666;23.344;2023-03-22T08:03:34;94485.78;;;11.65;100.00
3178;BME280;38141;42.666;23.344;2023-03-22T08:06:02;94481.56;;;11.57;100.00
3178;BME280;38141;42.666;23.344;2023-03-22T08:08:32;94427.88;;;11.34;100.00
3178;BME280;38141;42.666;23.344;2023-03-22T08:11:00;94458.03;;;11.43;100.00
3178;BME280;38141;42.666;23.344;2023-03-22T08:13:26;94429.47;;;11.21;100.00
3178;BME280;38141;42.666;23.344;2023-03-22T08:15:58;94479.63;;;11.57;100.00
3178;BME280;38141;42.666;23.344;2023-03-22T08:18:26;94451.53;;;11.20;100.00
3178;BME280;38141;42.666;23.344;2023-03-22T08:20:53;94461.56;;;11.19;100.00
3178;BME280;38141;42.666;23.344;2023-03-22T08:23:21;94418.38;;;10.84;100.00
3178;BME280;38141;42.666;23.344;2023-03-22T08:25:48;94413.69;;;10.98;100.00
3178;BME280;38141;42.666;23.344;2023-03-22T08:28:15;94499.78;;;11.53;100.00
3178;BME280;38141;42.666;23.344;2023-03-22T08:30:42;94489.38;;;11.44;100.00
3178;BME280;38141;42.666;23.344;2023-03-22T08:33:11;94478.22;;;11.10;100.00
3178;BME280;38141;42.666;23.344;2023-03-22T08:35:39;94398.31;;;10.70;100.00
3178;BME280;38141;42.666;23.344;2023-03-22T08:38:06;94456.19;;;11.15;100.00
3178;BME280;38141;42.666;23.344;2023-03-22T08:40:34;94428.41;;;10.94;100.00
3178;BME280;38141;42.666;23.344;2023-03-22T08:43:05;94417.56;;;10.87;100.00
3178;BME280;38141;42.666;23.344;2023-03-22T08:45:34;94488.22;;;11.31;100.00
3178;BME280;38141;42.666;23.344;2023-03-22T08:48:01;94490.53;;;11.33;100.00
3178;BME280;38141;42.666;23.344;2023-03-22T08:50:30;94505.28;;;11.25;100.00
3178;BME280;38141;42.666;23.344;2023-03-22T08:52:59;94499.06;;;11.31;100.00
3178;BME280;38141;42.666;23.344;2023-03-22T08:55:26;94482.41;;;11.43;100.00
3178;BME280;38141;42.666;23.344;2023-03-22T08:57:53;94502.38;;;11.81;100.00
3178;BME280;38141;42.666;23.344;2023-03-22T09:00:23;94366.97;;;10.77;100.00
3178;BME280;38141;42.666;23.344;2023-03-22T09:02:50;94381.31;;;10.66;100.00
3178;BME280;38141;42.666;23.344;2023-03-22T09:05:17;94485.13;;;11.36;100.00
3178;BME280;38141;42.666;23.344;2023-03-22T09:07:46;94492.44;;;11.46;100.00
3178;BME280;38141;42.666;23.344;2023-03-22T09:10:17;94404.91;;;10.41;100.00
3178;BME280;38141;42.666;23.344;2023-03-22T09:12:44;94514.97;;;11.15;100.00
3178;BME280;38141;42.666;23.344;2023-03-22T09:15:11;94439.22;;;10.90;100.00
3178;BME280;38141;42.666;23.344;2023-03-22T09:17:37;94502.56;;;11.25;100.00
3178;BME280;38141;42.666;23.344;2023-03-22T09:20:05;94518.84;;;11.10;100.00
3178;BME280;38141;42.666;23.344;2023-03-22T09:22:32;94523.84;;;11.19;100.00
3178;BME280;38141;42.666;23.344;2023-03-22T09:25:01;94482.84;;;11.24;100.00
3178;BME280;38141;42.666;23.344;2023-03-22T09:27:27;94505.63;;;11.44;100.00
3178;BME280;38141;42.666;23.344;2023-03-22T09:29:55;94512.63;;;11.24;100.00
3178;BME280;38141;42.666;23.344;2023-03-22T09:32:22;94508.41;;;11.09;100.00
3178;BME280;38141;42.666;23.344;2023-03-22T09:34:48;94503.00;;;11.05;100.00
3178;BME280;38141;42.666;23.344;2023-03-22T09:37:15;94441.22;;;10.61;100.00
3178;BME280;38141;42.666;23.344;2023-03-22T09:39:43;94501.72;;;11.45;100.00
3178;BME280;38141;42.666;23.344;2023-03-22T09:42:19;94526.09;;;11.45;100.00
3178;BME280;38141;42.666;23.344;2023-03-22T09:44:49;94437.31;;;10.73;100.00
3178;BME280;38141;42.666;23.344;2023-03-22T09:47:22;94491.34;;;11.30;100.00
3178;BME280;38141;42.666;23.344;2023-03-22T09:50:01;94491.34;;;11.23;100.00
3178;BME280;38141;42.666;23.344;2023-03-22T09:52:29;94504.03;;;11.50;100.00
3178;BME280;38141;42.666;23.344;2023-03-22T09:54:57;94497.84;;;11.53;100.00
3178;BME280;38141;42.666;23.344;2023-03-22T09:57:28;94520.53;;;11.98;100.00
3178;BME280;38141;42.666;23.344;2023-03-22T10:00:04;94438.19;;;11.64;100.00
3178;BME280;38141;42.666;23.344;2023-03-22T10:02:45;94523.56;;;12.08;100.00
3178;BME280;38141;42.666;23.344;2023-03-22T10:05:21;94514.94;;;12.23;100.00
3178;BME280;38141;42.666;23.344;2023-03-22T10:08:04;94489.41;;;12.21;100.00
3178;BME280;38141;42.666;23.344;2023-03-22T10:10:35;94532.09;;;12.68;100.00
3178;BME280;38141;42.666;23.344;2023-03-22T10:13:12;94476.53;;;12.32;100.00
3178;BME280;38141;42.666;23.344;2023-03-22T10:15:45;94445.97;;;12.24;100.00
3178;BME280;38141;42.666;23.344;2023-03-22T10:18:18;94489.63;;;12.44;100.00
3178;BME280;38141;42.666;23.344;2023-03-22T10:20:48;94535.47;;;12.83;100.00
3178;BME280;38141;42.666;23.344;2023-03-22T10:23:21;94533.28;;;12.64;100.00
3178;BME280;38141;42.666;23.344;2023-03-22T10:25:55;94522.41;;;12.64;100.00
3178;BME280;38141;42.666;23.344;2023-03-22T10:28:28;94533.69;;;12.62;100.00
3178;BME280;38141;42.666;23.344;2023-03-22T10:30:57;94541.28;;;12.81;100.00
3178;BME280;38141;42.666;23.344;2023-03-22T10:33:34;94527.19;;;12.49;100.00
3178;BME280;38141;42.666;23.344;2023-03-22T10:36:04;94525.59;;;12.55;100.00
3178;BME280;38141;42.666;23.344;2023-03-22T10:38:33;94507.63;;;12.75;100.00
3178;BME280;38141;42.666;23.344;2023-03-22T10:41:03;94525.34;;;12.87;100.00
3178;BME280;38141;42.666;23.344;2023-03-22T10:43:34;94529.41;;;13.09;100.00
3178;BME280;38141;42.666;23.344;2023-03-22T10:46:04;94504.56;;;12.70;100.00
3178;BME280;38141;42.666;23.344;2023-03-22T10:48:34;94525.34;;;12.87;100.00
3178;BME280;38141;42.666;23.344;2023-03-22T10:51:02;94509.88;;;12.84;100.00
3178;BME280;38141;42.666;23.344;2023-03-22T10:53:35;94468.56;;;12.62;100.00
3178;BME280;38141;42.666;23.344;2023-03-22T10:56:04;94520.72;;;12.84;100.00
3178;BME280;38141;42.666;23.344;2023-03-22T10:58:36;94532.75;;;12.83;100.00
3178;BME280;38141;42.666;23.344;2023-03-22T11:01:04;94527.97;;;12.98;100.00
3178;BME280;38141;42.666;23.344;2023-03-22T11:03:37;94527.50;;;13.06;100.00
3178;BME280;38141;42.666;23.344;2023-03-22T11:06:06;94499.72;;;12.91;100.00
3178;BME280;38141;42.666;23.344;2023-03-22T11:08:43;94487.53;;;12.66;100.00
3178;BME280;38141;42.666;23.344;2023-03-22T11:11:16;94433.44;;;12.44;100.00
3178;BME280;38141;42.666;23.344;2023-03-22T11:13:50;94503.66;;;12.83;100.00
3178;BME280;38141;42.666;23.344;2023-03-22T11:16:18;94521.69;;;13.04;100.00
3178;BME280;38141;42.666;23.344;2023-03-22T11:18:45;94484.28;;;12.81;100.00
3178;BME280;38141;42.666;23.344;2023-03-22T11:21:15;94416.50;;;12.30;100.00
3178;BME280;38141;42.666;23.344;2023-03-22T11:23:49;94518.63;;;13.02;100.00
3178;BME280;38141;42.666;23.344;2023-03-22T11:26:25;94487.38;;;12.83;100.00
3178;BME280;38141;42.666;23.344;2023-03-22T11:29:01;94499.22;;;12.56;100.00
3178;BME280;38141;42.666;23.344;2023-03-22T11:31:48;94442.88;;;12.22;100.00
3178;BME280;38141;42.666;23.344;2023-03-22T11:34:17;94453.84;;;12.04;100.00
3178;BME280;38141;42.666;23.344;2023-03-22T11:36:45;94540.59;;;12.70;100.00
3178;BME280;38141;42.666;23.344;2023-03-22T11:39:19;94411.63;;;12.07;100.00
3178;BME280;38141;42.666;23.344;2023-03-22T11:41:46;94509.84;;;12.87;100.00
3178;BME280;38141;42.666;23.344;2023-03-22T11:44:16;94500.63;;;12.74;100.00
3178;BME280;38141;42.666;23.344;2023-03-22T11:46:53;94484.63;;;12.87;100.00
3178;BME280;38141;42.666;23.344;2023-03-22T11:49:24;94505.41;;;13.08;100.00
3178;BME280;38141;42.666;23.344;2023-03-22T11:51:53;94507.34;;;13.04;100.00
3178;BME280;38141;42.666;23.344;2023-03-22T11:54:27;94508.84;;;13.08;100.00
3178;BME280;38141;42.666;23.344;2023-03-22T11:56:57;94500.88;;;12.90;100.00
3178;BME280;38141;42.666;23.344;2023-03-22T11:59:28;94514.13;;;12.85;100.00
3178;BME280;38141;42.666;23.344;2023-03-22T12:01:59;94521.16;;;12.79;100.00
3178;BME280;38141;42.666;23.344;2023-03-22T12:04:33;94456.75;;;12.31;100.00
3178;BME280;38141;42.666;23.344;2023-03-22T12:07:04;94485.00;;;12.44;100.00
3178;BME280;38141;42.666;23.344;2023-03-22T12:09:40;94511.25;;;12.58;100.00
3178;BME280;38141;42.666;23.344;2023-03-22T12:12:11;94505.81;;;12.58;100.00
3178;BME280;38141;42.666;23.344;2023-03-22T12:14:47;94508.84;;;12.64;100.00
3178;BME280;38141;42.666;23.344;2023-03-22T12:17:20;94516.44;;;12.86;100.00
3178;BME280;38141;42.666;23.344;2023-03-22T12:19:57;94515.28;;;12.84;100.00
3178;BME280;38141;42.666;23.344;2023-03-22T12:22:29;94476.72;;;12.62;100.00
3178;BME280;38141;42.666;23.344;2023-03-22T12:24:57;94439.97;;;12.51;100.00
3178;BME280;38141;42.666;23.344;2023-03-22T12:27:26;94437.66;;;12.49;100.00
3178;BME280;38141;42.666;23.344;2023-03-22T12:29:58;94503.09;;;13.03;100.00
3178;BME280;38141;42.666;23.344;2023-03-22T12:32:29;94502.94;;;13.24;100.00
3178;BME280;38141;42.666;23.344;2023-03-22T12:34:56;94495.41;;;13.39;100.00
3178;BME280;38141;42.666;23.344;2023-03-22T12:37:26;94483.66;;;13.45;100.00
3178;BME280;38141;42.666;23.344;2023-03-22T12:39:57;94421.22;;;13.08;100.00
3178;BME280;38141;42.666;23.344;2023-03-22T12:42:29;94485.06;;;13.60;100.00
3178;BME280;38141;42.666;23.344;2023-03-22T12:45:04;94488.94;;;13.59;100.00
3178;BME280;38141;42.666;23.344;2023-03-22T12:47:39;94433.84;;;13.25;100.00
3178;BME280;38141;42.666;23.344;2023-03-22T12:50:12;94419.25;;;13.12;100.00
3178;BME280;38141;42.666;23.344;2023-03-22T12:52:43;94436.25;;;13.53;100.00
3178;BME280;38141;42.666;23.344;2023-03-22T12:55:20;94473.88;;;14.15;100.00
3178;BME280;38141;42.666;23.344;2023-03-22T12:57:50;94490.25;;;14.12;98.24
3178;BME280;38141;42.666;23.344;2023-03-22T13:00:25;94410.63;;;13.51;98.33
3178;BME280;38141;42.666;23.344;2023-03-22T13:02:57;94474.53;;;14.23;97.73
3178;BME280;38141;42.666;23.344;2023-03-22T13:05:27;94504.22;;;14.41;93.00
3178;BME280;38141;42.666;23.344;2023-03-22T13:07:55;94487.09;;;14.44;94.20
3178;BME280;38141;42.666;23.344;2023-03-22T13:10:45;94429.41;;;13.99;94.49
3178;BME280;38141;42.666;23.344;2023-03-22T13:13:31;94483.03;;;14.55;91.81
3178;BME280;38141;42.666;23.344;2023-03-22T13:16:13;94457.22;;;13.83;92.89
3178;BME280;38141;42.666;23.344;2023-03-22T13:19:00;94439.84;;;13.73;95.32